Ottoman Nobility — TCDA2 — position and weather

sailwx.info

Track history (hours):
 
Tides and Currents Weather Stations Pressure Air Temp Water Temp Dewpoint Dewpoint Depression Visibility Wind Speed Wind Dir Waves Ship Positions

Ottoman Nobility

Last reported at 2016-Nov-22 09:21 UTC. Time now 2016-Dec-07 10:31 UTC.
Position S 29°27' E 031°52'.
Warning: this ship's position is 15 days out of date.

; draft 8.5 m.

Type: Ship. MMSI: 271000773.

Date/timePositionNaut miles runAvg speedWind from/ knotsBaromVisibWave heightAir tempDewpointWater temp
2016-Nov-22 09:21S 29°27' E 031°52'911.2
2016-Nov-22 08:33S 29°33' E 031°44'1313.2
2016-Nov-22 07:33S 29°41' E 031°33'2613.0
2016-Nov-22 05:33S 29°54' E 031°07'9 9.5
2016-Nov-22 04:33S 30°01' E 030°59'1 0.5
2016-Nov-22 03:28S 30°00' E 030°58'0 0.0
2016-Nov-22 02:25S 30°00' E 030°58'0 0.0
2016-Nov-21 23:29S 30°00' E 030°58'0 0.0
2016-Nov-21 21:32S 30°00' E 030°58'0 0.0
2016-Nov-21 17:30S 30°00' E 030°58'0 0.1
2016-Nov-21 14:28S 30°00' E 030°58'0 0.0
2016-Nov-21 13:32S 30°00' E 030°58'0 0.1
2016-Nov-21 12:31S 30°01' E 030°58'0 0.0
2016-Nov-21 11:31S 30°01' E 030°58'0 0.0
2016-Nov-21 10:30S 30°01' E 030°58'0 0.0
2016-Nov-21 08:29S 30°01' E 030°58'0 0.0
2016-Nov-21 07:30S 30°01' E 030°58'3 1.7
2016-Nov-21 05:33S 30°02' E 031°02'1 1.3
2016-Nov-21 04:32S 30°01' E 031°01'14 7.2
2016-Nov-21 02:33S 29°51' E 031°13'10 4.9
2016-Nov-21 00:28S 29°41' E 031°14'0 0.0
2016-Nov-20 22:29S 29°41' E 031°14'0 0.1
2016-Nov-20 21:30S 29°41' E 031°14'0 0.0
2016-Nov-20 17:27S 29°41' E 031°14'0 0.0
2016-Nov-20 16:32S 29°41' E 031°14'0 0.0
2016-Nov-20 14:33S 29°41' E 031°14'0 0.0
2016-Nov-20 13:33S 29°41' E 031°14'0 0.1
2016-Nov-20 12:31S 29°41' E 031°14'0 0.0
2016-Nov-20 09:31S 29°41' E 031°14'0 0.0
2016-Nov-20 08:33S 29°41' E 031°14'0 0.0
2016-Nov-20 07:06S 29°41' E 031°14'0 0.0
2016-Nov-20 06:27S 29°41' E 031°14'0 0.0
2016-Nov-20 05:31S 29°41' E 031°14'0 0.0
2016-Nov-20 04:31S 29°41' E 031°14'0 0.0
2016-Nov-20 03:31S 29°41' E 031°14'0 0.0
2016-Nov-20 01:31S 29°41' E 031°14'0 0.0
2016-Nov-19 23:31S 29°41' E 031°14'0 0.0
2016-Nov-19 22:31S 29°41' E 031°14'0 0.0
2016-Nov-19 20:32S 29°41' E 031°14'0 0.0
2016-Nov-19 19:33S 29°41' E 031°14'0 0.0
2016-Nov-19 17:32S 29°41' E 031°14'0 0.0
2016-Nov-19 16:31S 29°41' E 031°14'0 0.0
2016-Nov-19 14:32S 29°41' E 031°14'0 0.0
2016-Nov-19 11:32S 29°41' E 031°14'0 0.0
2016-Nov-19 09:32S 29°41' E 031°14'0 0.0
2016-Nov-19 07:33S 29°41' E 031°14'0 0.0
2016-Nov-19 05:30S 29°41' E 031°14'0 0.0
2016-Nov-19 04:33S 29°41' E 031°14'0 0.0
2016-Nov-19 03:33S 29°41' E 031°14'0 0.0
2016-Nov-19 02:33S 29°41' E 031°14'0 0.1
2016-Nov-19 01:33S 29°41' E 031°14'0 0.0
2016-Nov-19 00:32S 29°41' E 031°14'0 0.0
2016-Nov-18 23:31S 29°41' E 031°14'0 0.0
2016-Nov-18 20:33S 29°41' E 031°14'0 0.0
2016-Nov-18 18:32S 29°41' E 031°14'0 0.0
2016-Nov-18 17:32S 29°41' E 031°14'0 0.0
2016-Nov-18 14:31S 29°41' E 031°14'0 0.0
2016-Nov-18 12:32S 29°41' E 031°14'0 0.1
2016-Nov-18 11:31S 29°41' E 031°14'0 0.0
2016-Nov-18 09:33S 29°41' E 031°14'0 0.0
2016-Nov-18 07:31S 29°41' E 031°14'0 0.0
2016-Nov-18 05:31S 29°41' E 031°14'0 0.1
2016-Nov-18 04:33S 29°41' E 031°14'0 0.0
2016-Nov-18 01:31S 29°41' E 031°14'0 0.0
2016-Nov-18 00:33S 29°41' E 031°14'0 0.0
2016-Nov-17 23:32S 29°41' E 031°14'0 0.0
2016-Nov-17 22:32S 29°41' E 031°14'0 0.1
2016-Nov-17 21:32S 29°41' E 031°14'0 0.0
2016-Nov-17 19:32S 29°41' E 031°14'0 0.0
2016-Nov-17 18:31S 29°41' E 031°14'0 0.0
2016-Nov-17 14:32S 29°41' E 031°14'0 0.0
2016-Nov-17 13:33S 29°41' E 031°14'0 0.0
2016-Nov-17 12:32S 29°41' E 031°14'0 0.0
2016-Nov-17 11:33S 29°41' E 031°14'0 0.0
2016-Nov-17 08:32S 29°41' E 031°14'0 0.0
2016-Nov-17 06:29S 29°41' E 031°14'0 0.0
2016-Nov-17 02:33S 29°41' E 031°14'0 0.1
2016-Nov-16 23:32S 29°41' E 031°14'0 0.0
2016-Nov-16 20:33S 29°41' E 031°14'0 0.0
2016-Nov-16 19:31S 29°41' E 031°14'0 0.0
2016-Nov-16 18:33S 29°41' E 031°14'0 0.0
2016-Nov-16 17:33S 29°41' E 031°14'0 0.0
2016-Nov-16 16:32S 29°41' E 031°14'0 0.0
2016-Nov-16 12:22S 29°41' E 031°14'0 0.0
2016-Nov-16 09:31S 29°41' E 031°14'0 0.0
2016-Nov-16 08:25S 29°41' E 031°14'0 0.0
2016-Nov-16 07:25S 29°41' E 031°14'0 0.0
2016-Nov-16 06:31S 29°41' E 031°14'0 0.0
2016-Nov-16 04:32S 29°41' E 031°14'0 0.0
2016-Nov-16 03:32S 29°41' E 031°14'0 0.0
2016-Nov-15 21:33S 29°41' E 031°14'0 0.0
2016-Nov-15 19:33S 29°41' E 031°14'0 0.1
2016-Nov-15 18:33S 29°41' E 031°14'0 0.0
2016-Nov-15 13:33S 29°41' E 031°14'0 0.0
2016-Nov-15 12:31S 29°41' E 031°14'0 0.0
2016-Nov-15 11:32S 29°41' E 031°14'0 0.0
2016-Nov-15 10:32S 29°41' E 031°14'1 0.4
2016-Nov-15 07:33S 29°41' E 031°15'7 6.6
2016-Nov-15 06:34S 29°48' E 031°17'2 3.7
2016-Nov-15 05:53S 29°50' E 031°16'5 2.1
2016-Nov-15 03:33S 29°46' E 031°14'5 4.5
2016-Nov-15 02:32S 29°41' E 031°14'0 0.0
2016-Nov-15 00:32S 29°41' E 031°14'0 0.1
2016-Nov-14 23:41S 29°41' E 031°14'0 0.0
2016-Nov-14 19:23S 29°41' E 031°14'0 0.0
2016-Nov-14 17:31S 29°41' E 031°14'0 0.0
2016-Nov-14 16:31S 29°41' E 031°14'0 0.1
2016-Nov-14 15:33S 29°41' E 031°14'0 0.0
2016-Nov-14 11:31S 29°41' E 031°14'0 0.0
2016-Nov-14 08:31S 29°41' E 031°14'0 0.0
2016-Nov-14 05:32S 29°41' E 031°14'0 0.0
2016-Nov-14 00:31S 29°41' E 031°14'0 0.0
2016-Nov-13 23:31S 29°41' E 031°14'0 0.0
2016-Nov-13 22:31S 29°41' E 031°14'0 0.0
2016-Nov-13 19:31S 29°41' E 031°14'0 0.1
2016-Nov-13 18:31S 29°41' E 031°14'0 0.0
2016-Nov-13 17:33S 29°41' E 031°14'0 0.0
2016-Nov-13 15:33S 29°41' E 031°14'0 0.0
2016-Nov-13 13:32S 29°41' E 031°14'0 0.0
2016-Nov-13 10:31S 29°41' E 031°14'1 0.4
2016-Nov-13 08:34S 29°42' E 031°14'11 3.6
2016-Nov-13 05:34S 29°52' E 031°09'10 5.2
2016-Nov-13 03:33S 29°42' E 031°14'1 0.2
2016-Nov-12 23:31S 29°41' E 031°14'0 0.0
2016-Nov-12 21:31S 29°41' E 031°14'0 0.0
2016-Nov-12 19:32S 29°41' E 031°14'0 0.0
2016-Nov-12 17:31S 29°41' E 031°14'0 0.0
2016-Nov-12 16:31S 29°41' E 031°14'0 0.0
2016-Nov-12 15:32S 29°41' E 031°14'0 0.0
2016-Nov-12 14:31S 29°41' E 031°14'0 0.0
2016-Nov-12 13:23S 29°41' E 031°14'0 0.0
2016-Nov-12 12:33S 29°41' E 031°14'0 0.2
2016-Nov-12 11:27S 29°42' E 031°14'0 0.0
2016-Nov-12 09:28S 29°42' E 031°14'  
Track history (hours):
 
Tides and Currents Weather Stations Pressure Air Temp Water Temp Dewpoint Dewpoint Depression Visibility Wind Speed Wind Dir Waves Ship Positions

Ottoman Nobility

Last reported at 2016-Nov-22 09:21 UTC. Time now 2016-Dec-07 10:31 UTC.
Position S 29°27' E 031°52'.
Warning: this ship's position is 15 days out of date.

; draft 8.5 m.

Type: Ship. MMSI: 271000773.

Date/timePositionNaut miles runAvg speedWind from/ knotsBaromVisibWave heightAir tempDewpointWater temp
2016-Nov-22 09:21S 29°27' E 031°52'911.2
2016-Nov-22 08:33S 29°33' E 031°44'1313.2
2016-Nov-22 07:33S 29°41' E 031°33'2613.0
2016-Nov-22 05:33S 29°54' E 031°07'9 9.5
2016-Nov-22 04:33S 30°01' E 030°59'1 0.5
2016-Nov-22 03:28S 30°00' E 030°58'0 0.0
2016-Nov-22 02:25S 30°00' E 030°58'0 0.0
2016-Nov-21 23:29S 30°00' E 030°58'0 0.0
2016-Nov-21 21:32S 30°00' E 030°58'0 0.0
2016-Nov-21 17:30S 30°00' E 030°58'0 0.1
2016-Nov-21 14:28S 30°00' E 030°58'0 0.0
2016-Nov-21 13:32S 30°00' E 030°58'0 0.1
2016-Nov-21 12:31S 30°01' E 030°58'0 0.0
2016-Nov-21 11:31S 30°01' E 030°58'0 0.0
2016-Nov-21 10:30S 30°01' E 030°58'0 0.0
2016-Nov-21 08:29S 30°01' E 030°58'0 0.0
2016-Nov-21 07:30S 30°01' E 030°58'3 1.7
2016-Nov-21 05:33S 30°02' E 031°02'1 1.3
2016-Nov-21 04:32S 30°01' E 031°01'14 7.2
2016-Nov-21 02:33S 29°51' E 031°13'10 4.9
2016-Nov-21 00:28S 29°41' E 031°14'0 0.0
2016-Nov-20 22:29S 29°41' E 031°14'0 0.1
2016-Nov-20 21:30S 29°41' E 031°14'0 0.0
2016-Nov-20 17:27S 29°41' E 031°14'0 0.0
2016-Nov-20 16:32S 29°41' E 031°14'0 0.0
2016-Nov-20 14:33S 29°41' E 031°14'0 0.0
2016-Nov-20 13:33S 29°41' E 031°14'0 0.1
2016-Nov-20 12:31S 29°41' E 031°14'0 0.0
2016-Nov-20 09:31S 29°41' E 031°14'0 0.0
2016-Nov-20 08:33S 29°41' E 031°14'0 0.0
2016-Nov-20 07:06S 29°41' E 031°14'0 0.0
2016-Nov-20 06:27S 29°41' E 031°14'0 0.0
2016-Nov-20 05:31S 29°41' E 031°14'0 0.0
2016-Nov-20 04:31S 29°41' E 031°14'0 0.0
2016-Nov-20 03:31S 29°41' E 031°14'0 0.0
2016-Nov-20 01:31S 29°41' E 031°14'0 0.0
2016-Nov-19 23:31S 29°41' E 031°14'0 0.0
2016-Nov-19 22:31S 29°41' E 031°14'0 0.0
2016-Nov-19 20:32S 29°41' E 031°14'0 0.0
2016-Nov-19 19:33S 29°41' E 031°14'0 0.0
2016-Nov-19 17:32S 29°41' E 031°14'0 0.0
2016-Nov-19 16:31S 29°41' E 031°14'0 0.0
2016-Nov-19 14:32S 29°41' E 031°14'0 0.0
2016-Nov-19 11:32S 29°41' E 031°14'0 0.0
2016-Nov-19 09:32S 29°41' E 031°14'0 0.0
2016-Nov-19 07:33S 29°41' E 031°14'0 0.0
2016-Nov-19 05:30S 29°41' E 031°14'0 0.0
2016-Nov-19 04:33S 29°41' E 031°14'0 0.0
2016-Nov-19 03:33S 29°41' E 031°14'0 0.0
2016-Nov-19 02:33S 29°41' E 031°14'0 0.1
2016-Nov-19 01:33S 29°41' E 031°14'0 0.0
2016-Nov-19 00:32S 29°41' E 031°14'0 0.0
2016-Nov-18 23:31S 29°41' E 031°14'0 0.0
2016-Nov-18 20:33S 29°41' E 031°14'0 0.0
2016-Nov-18 18:32S 29°41' E 031°14'0 0.0
2016-Nov-18 17:32S 29°41' E 031°14'0 0.0
2016-Nov-18 14:31S 29°41' E 031°14'0 0.0
2016-Nov-18 12:32S 29°41' E 031°14'0 0.1
2016-Nov-18 11:31S 29°41' E 031°14'0 0.0
2016-Nov-18 09:33S 29°41' E 031°14'0 0.0
2016-Nov-18 07:31S 29°41' E 031°14'0 0.0
2016-Nov-18 05:31S 29°41' E 031°14'0 0.1
2016-Nov-18 04:33S 29°41' E 031°14'0 0.0
2016-Nov-18 01:31S 29°41' E 031°14'0 0.0
2016-Nov-18 00:33S 29°41' E 031°14'0 0.0
2016-Nov-17 23:32S 29°41' E 031°14'0 0.0
2016-Nov-17 22:32S 29°41' E 031°14'0 0.1
2016-Nov-17 21:32S 29°41' E 031°14'0 0.0
2016-Nov-17 19:32S 29°41' E 031°14'0 0.0
2016-Nov-17 18:31S 29°41' E 031°14'0 0.0
2016-Nov-17 14:32S 29°41' E 031°14'0 0.0
2016-Nov-17 13:33S 29°41' E 031°14'0 0.0
2016-Nov-17 12:32S 29°41' E 031°14'0 0.0
2016-Nov-17 11:33S 29°41' E 031°14'0 0.0
2016-Nov-17 08:32S 29°41' E 031°14'0 0.0
2016-Nov-17 06:29S 29°41' E 031°14'0 0.0
2016-Nov-17 02:33S 29°41' E 031°14'0 0.1
2016-Nov-16 23:32S 29°41' E 031°14'0 0.0
2016-Nov-16 20:33S 29°41' E 031°14'0 0.0
2016-Nov-16 19:31S 29°41' E 031°14'0 0.0
2016-Nov-16 18:33S 29°41' E 031°14'0 0.0
2016-Nov-16 17:33S 29°41' E 031°14'0 0.0
2016-Nov-16 16:32S 29°41' E 031°14'0 0.0
2016-Nov-16 12:22S 29°41' E 031°14'0 0.0
2016-Nov-16 09:31S 29°41' E 031°14'0 0.0
2016-Nov-16 08:25S 29°41' E 031°14'0 0.0
2016-Nov-16 07:25S 29°41' E 031°14'0 0.0
2016-Nov-16 06:31S 29°41' E 031°14'0 0.0
2016-Nov-16 04:32S 29°41' E 031°14'0 0.0
2016-Nov-16 03:32S 29°41' E 031°14'0 0.0
2016-Nov-15 21:33S 29°41' E 031°14'0 0.0
2016-Nov-15 19:33S 29°41' E 031°14'0 0.1
2016-Nov-15 18:33S 29°41' E 031°14'0 0.0
2016-Nov-15 13:33S 29°41' E 031°14'0 0.0
2016-Nov-15 12:31S 29°41' E 031°14'0 0.0
2016-Nov-15 11:32S 29°41' E 031°14'0 0.0
2016-Nov-15 10:32S 29°41' E 031°14'1 0.4
2016-Nov-15 07:33S 29°41' E 031°15'7 6.6
2016-Nov-15 06:34S 29°48' E 031°17'2 3.7
2016-Nov-15 05:53S 29°50' E 031°16'5 2.1
2016-Nov-15 03:33S 29°46' E 031°14'5 4.5
2016-Nov-15 02:32S 29°41' E 031°14'0 0.0
2016-Nov-15 00:32S 29°41' E 031°14'0 0.1
2016-Nov-14 23:41S 29°41' E 031°14'0 0.0
2016-Nov-14 19:23S 29°41' E 031°14'0 0.0
2016-Nov-14 17:31S 29°41' E 031°14'0 0.0
2016-Nov-14 16:31S 29°41' E 031°14'0 0.1
2016-Nov-14 15:33S 29°41' E 031°14'0 0.0
2016-Nov-14 11:31S 29°41' E 031°14'0 0.0
2016-Nov-14 08:31S 29°41' E 031°14'0 0.0
2016-Nov-14 05:32S 29°41' E 031°14'0 0.0
2016-Nov-14 00:31S 29°41' E 031°14'0 0.0
2016-Nov-13 23:31S 29°41' E 031°14'0 0.0
2016-Nov-13 22:31S 29°41' E 031°14'0 0.0
2016-Nov-13 19:31S 29°41' E 031°14'0 0.1
2016-Nov-13 18:31S 29°41' E 031°14'0 0.0
2016-Nov-13 17:33S 29°41' E 031°14'0 0.0
2016-Nov-13 15:33S 29°41' E 031°14'0 0.0
2016-Nov-13 13:32S 29°41' E 031°14'0 0.0
2016-Nov-13 10:31S 29°41' E 031°14'1 0.4
2016-Nov-13 08:34S 29°42' E 031°14'11 3.6
2016-Nov-13 05:34S 29°52' E 031°09'10 5.2
2016-Nov-13 03:33S 29°42' E 031°14'1 0.2
2016-Nov-12 23:31S 29°41' E 031°14'0 0.0
2016-Nov-12 21:31S 29°41' E 031°14'0 0.0
2016-Nov-12 19:32S 29°41' E 031°14'0 0.0
2016-Nov-12 17:31S 29°41' E 031°14'0 0.0
2016-Nov-12 16:31S 29°41' E 031°14'0 0.0
2016-Nov-12 15:32S 29°41' E 031°14'0 0.0
2016-Nov-12 14:31S 29°41' E 031°14'0 0.0
2016-Nov-12 13:23S 29°41' E 031°14'0 0.0
2016-Nov-12 12:33S 29°41' E 031°14'0 0.2
2016-Nov-12 11:27S 29°42' E 031°14'0 0.0
2016-Nov-12 09:28S 29°42' E 031°14'  

Dump ship's entire track history